sensor_id;sensor_type;location;lat;lon;timestamp;pressure;altitude;pressure_sealevel;temperature;humidity
12146;BME280;6136;47.032;15.398;2023-03-14T00:01:09;96323.69;;;5.18;100.00
12146;BME280;6136;47.032;15.398;2023-03-14T00:03:37;96316.28;;;5.24;100.00
12146;BME280;6136;47.032;15.398;2023-03-14T00:06:07;96325.19;;;5.22;100.00
12146;BME280;6136;47.032;15.398;2023-03-14T00:08:35;96315.59;;;5.21;100.00
12146;BME280;6136;47.032;15.398;2023-03-14T00:11:07;96304.00;;;5.25;100.00
12146;BME280;6136;47.032;15.398;2023-03-14T00:13:36;96329.50;;;5.37;100.00
12146;BME280;6136;47.032;15.398;2023-03-14T00:16:06;96311.09;;;5.37;100.00
12146;BME280;6136;47.032;15.398;2023-03-14T00:18:34;96324.41;;;5.34;100.00
12146;BME280;6136;47.032;15.398;2023-03-14T00:21:05;96325.72;;;5.27;100.00
12146;BME280;6136;47.032;15.398;2023-03-14T00:23:35;96292.66;;;5.10;100.00
12146;BME280;6136;47.032;15.398;2023-03-14T00:26:06;96312.59;;;5.13;100.00
12146;BME280;6136;47.032;15.398;2023-03-14T00:28:35;96297.50;;;5.16;100.00
12146;BME280;6136;47.032;15.398;2023-03-14T00:31:05;96277.53;;;5.14;100.00
12146;BME280;6136;47.032;15.398;2023-03-14T00:33:34;96287.66;;;5.05;100.00
12146;BME280;6136;47.032;15.398;2023-03-14T00:36:05;96274.34;;;4.94;100.00
12146;BME280;6136;47.032;15.398;2023-03-14T00:38:36;96276.88;;;5.10;100.00
12146;BME280;6136;47.032;15.398;2023-03-14T00:41:08;96274.34;;;5.23;100.00
12146;BME280;6136;47.032;15.398;2023-03-14T00:43:36;96289.34;;;5.21;100.00
12146;BME280;6136;47.032;15.398;2023-03-14T00:46:05;96290.75;;;5.12;100.00
12146;BME280;6136;47.032;15.398;2023-03-14T00:48:34;96295.34;;;5.08;100.00
12146;BME280;6136;47.032;15.398;2023-03-14T00:51:04;96265.44;;;4.97;100.00
12146;BME280;6136;47.032;15.398;2023-03-14T00:53:35;96254.00;;;4.98;100.00
12146;BME280;6136;47.032;15.398;2023-03-14T00:56:07;96277.44;;;5.01;100.00
12146;BME280;6136;47.032;15.398;2023-03-14T00:58:36;96252.97;;;5.00;100.00
12146;BME280;6136;47.032;15.398;2023-03-14T01:01:08;96247.81;;;4.99;100.00
12146;BME280;6136;47.032;15.398;2023-03-14T01:03:37;96247.16;;;4.95;100.00
12146;BME280;6136;47.032;15.398;2023-03-14T01:06:10;96234.78;;;4.97;100.00
12146;BME280;6136;47.032;15.398;2023-03-14T01:08:41;96234.41;;;5.03;100.00
12146;BME280;6136;47.032;15.398;2023-03-14T01:11:13;96222.03;;;5.05;100.00
12146;BME280;6136;47.032;15.398;2023-03-14T01:13:42;96219.88;;;4.98;100.00
12146;BME280;6136;47.032;15.398;2023-03-14T01:16:11;96213.78;;;4.97;100.00
12146;BME280;6136;47.032;15.398;2023-03-14T01:18:41;96208.06;;;4.91;100.00
12146;BME280;6136;47.032;15.398;2023-03-14T01:21:12;96176.31;;;4.81;100.00
12146;BME280;6136;47.032;15.398;2023-03-14T01:23:41;96182.59;;;4.79;100.00
12146;BME280;6136;47.032;15.398;2023-03-14T01:26:12;96178.09;;;4.81;100.00
12146;BME280;6136;47.032;15.398;2023-03-14T01:28:41;96188.47;;;4.82;100.00
12146;BME280;6136;47.032;15.398;2023-03-14T01:31:10;96167.13;;;4.74;100.00
12146;BME280;6136;47.032;15.398;2023-03-14T01:33:40;96164.47;;;4.60;100.00
12146;BME280;6136;47.032;15.398;2023-03-14T01:36:10;96165.06;;;4.65;100.00
12146;BME280;6136;47.032;15.398;2023-03-14T01:38:39;96162.91;;;4.57;100.00
12146;BME280;6136;47.032;15.398;2023-03-14T01:41:14;96166.16;;;4.61;100.00
12146;BME280;6136;47.032;15.398;2023-03-14T01:43:44;96153.81;;;4.63;100.00
12146;BME280;6136;47.032;15.398;2023-03-14T01:46:28;96151.38;;;4.60;100.00
12146;BME280;6136;47.032;15.398;2023-03-14T01:49:11;96142.19;;;4.67;100.00
12146;BME280;6136;47.032;15.398;2023-03-14T01:51:48;96152.34;;;4.59;100.00
12146;BME280;6136;47.032;15.398;2023-03-14T01:54:21;96148.41;;;4.52;100.00
12146;BME280;6136;47.032;15.398;2023-03-14T01:56:57;96145.00;;;4.50;100.00
12146;BME280;6136;47.032;15.398;2023-03-14T01:59:27;96140.53;;;4.52;100.00
12146;BME280;6136;47.032;15.398;2023-03-14T02:01:58;96144.25;;;4.48;100.00
12146;BME280;6136;47.032;15.398;2023-03-14T02:04:32;96147.72;;;4.48;100.00
12146;BME280;6136;47.032;15.398;2023-03-14T02:07:05;96153.25;;;4.44;100.00
12146;BME280;6136;47.032;15.398;2023-03-14T02:09:41;96131.53;;;4.42;100.00
12146;BME280;6136;47.032;15.398;2023-03-14T02:12:17;96136.56;;;4.45;100.00
12146;BME280;6136;47.032;15.398;2023-03-14T02:14:50;96146.41;;;4.41;100.00
12146;BME280;6136;47.032;15.398;2023-03-14T02:17:30;96135.25;;;4.38;100.00
12146;BME280;6136;47.032;15.398;2023-03-14T02:20:13;96128.44;;;4.35;100.00
12146;BME280;6136;47.032;15.398;2023-03-14T02:22:52;96132.28;;;4.29;100.00
12146;BME280;6136;47.032;15.398;2023-03-14T02:25:26;96132.44;;;4.26;100.00
12146;BME280;6136;47.032;15.398;2023-03-14T02:27:58;96130.94;;;4.22;100.00
12146;BME280;6136;47.032;15.398;2023-03-14T02:30:29;96125.69;;;4.22;100.00
12146;BME280;6136;47.032;15.398;2023-03-14T02:33:01;96111.47;;;4.26;100.00
12146;BME280;6136;47.032;15.398;2023-03-14T02:35:34;96094.91;;;4.26;100.00
12146;BME280;6136;47.032;15.398;2023-03-14T02:38:07;96130.13;;;4.22;100.00
12146;BME280;6136;47.032;15.398;2023-03-14T02:40:40;96113.25;;;4.26;100.00
12146;BME280;6136;47.032;15.398;2023-03-14T02:43:10;96123.44;;;4.30;100.00
12146;BME280;6136;47.032;15.398;2023-03-14T02:45:44;96110.47;;;4.43;100.00
12146;BME280;6136;47.032;15.398;2023-03-14T02:48:17;96106.78;;;4.46;100.00
12146;BME280;6136;47.032;15.398;2023-03-14T02:50:48;96102.84;;;4.53;100.00
12146;BME280;6136;47.032;15.398;2023-03-14T02:53:18;96093.47;;;4.63;100.00
12146;BME280;6136;47.032;15.398;2023-03-14T02:55:49;96095.66;;;4.56;100.00
12146;BME280;6136;47.032;15.398;2023-03-14T02:58:21;96104.91;;;4.62;100.00
12146;BME280;6136;47.032;15.398;2023-03-14T03:00:55;96110.25;;;4.60;100.00
12146;BME280;6136;47.032;15.398;2023-03-14T03:03:24;96102.28;;;4.62;100.00
12146;BME280;6136;47.032;15.398;2023-03-14T03:05:54;96094.16;;;4.66;100.00
12146;BME280;6136;47.032;15.398;2023-03-14T03:08:24;96097.50;;;4.68;100.00
12146;BME280;6136;47.032;15.398;2023-03-14T03:10:56;96104.25;;;4.73;100.00
12146;BME280;6136;47.032;15.398;2023-03-14T03:13:28;96104.88;;;4.76;100.00
12146;BME280;6136;47.032;15.398;2023-03-14T03:15:57;96115.59;;;4.73;100.00
12146;BME280;6136;47.032;15.398;2023-03-14T03:18:25;96097.59;;;4.67;100.00
12146;BME280;6136;47.032;15.398;2023-03-14T03:20:53;96098.34;;;4.69;100.00
12146;BME280;6136;47.032;15.398;2023-03-14T03:23:22;96082.41;;;4.72;100.00
12146;BME280;6136;47.032;15.398;2023-03-14T03:25:50;96093.09;;;4.69;100.00
12146;BME280;6136;47.032;15.398;2023-03-14T03:28:19;96127.28;;;4.67;100.00
12146;BME280;6136;47.032;15.398;2023-03-14T03:30:49;96103.59;;;4.69;100.00
12146;BME280;6136;47.032;15.398;2023-03-14T03:33:18;96108.84;;;4.69;100.00
12146;BME280;6136;47.032;15.398;2023-03-14T03:35:48;96104.34;;;4.71;100.00
12146;BME280;6136;47.032;15.398;2023-03-14T03:38:23;96091.97;;;4.73;100.00
12146;BME280;6136;47.032;15.398;2023-03-14T03:40:53;96106.78;;;4.74;100.00
12146;BME280;6136;47.032;15.398;2023-03-14T03:43:24;96131.31;;;4.87;100.00
12146;BME280;6136;47.032;15.398;2023-03-14T03:45:54;96126.44;;;4.95;100.00
12146;BME280;6136;47.032;15.398;2023-03-14T03:48:23;96131.28;;;5.01;100.00
12146;BME280;6136;47.032;15.398;2023-03-14T03:50:51;96134.00;;;5.00;100.00
12146;BME280;6136;47.032;15.398;2023-03-14T03:53:21;96125.09;;;5.02;100.00
12146;BME280;6136;47.032;15.398;2023-03-14T03:56:02;96124.72;;;5.08;100.00
12146;BME280;6136;47.032;15.398;2023-03-14T03:58:30;96126.19;;;5.13;100.00
12146;BME280;6136;47.032;15.398;2023-03-14T04:01:00;96142.50;;;5.18;100.00
12146;BME280;6136;47.032;15.398;2023-03-14T04:03:28;96144.19;;;5.19;100.00
12146;BME280;6136;47.032;15.398;2023-03-14T04:06:00;96136.31;;;5.19;100.00
12146;BME280;6136;47.032;15.398;2023-03-14T04:08:30;96123.19;;;5.19;100.00
12146;BME280;6136;47.032;15.398;2023-03-14T04:11:00;96125.59;;;5.22;100.00
12146;BME280;6136;47.032;15.398;2023-03-14T04:13:50;96140.03;;;5.29;100.00
12146;BME280;6136;47.032;15.398;2023-03-14T04:16:22;96138.41;;;5.40;100.00
12146;BME280;6136;47.032;15.398;2023-03-14T04:18:55;96124.78;;;5.48;100.00
12146;BME280;6136;47.032;15.398;2023-03-14T04:21:25;96128.34;;;5.47;100.00
12146;BME280;6136;47.032;15.398;2023-03-14T04:23:56;96137.50;;;5.54;100.00
12146;BME280;6136;47.032;15.398;2023-03-14T04:26:27;96137.41;;;5.56;100.00
12146;BME280;6136;47.032;15.398;2023-03-14T04:28:56;96149.00;;;5.66;100.00
12146;BME280;6136;47.032;15.398;2023-03-14T04:31:25;96143.25;;;5.73;100.00
12146;BME280;6136;47.032;15.398;2023-03-14T04:33:54;96138.72;;;5.75;100.00
12146;BME280;6136;47.032;15.398;2023-03-14T04:36:32;96143.19;;;5.88;100.00
12146;BME280;6136;47.032;15.398;2023-03-14T04:39:05;96140.72;;;5.99;100.00
12146;BME280;6136;47.032;15.398;2023-03-14T04:41:37;96139.03;;;6.10;100.00
12146;BME280;6136;47.032;15.398;2023-03-14T04:44:05;96133.38;;;6.16;100.00
12146;BME280;6136;47.032;15.398;2023-03-14T04:46:36;96134.75;;;6.22;100.00
12146;BME280;6136;47.032;15.398;2023-03-14T04:49:06;96128.53;;;6.23;100.00
12146;BME280;6136;47.032;15.398;2023-03-14T04:51:35;96126.44;;;6.28;100.00
12146;BME280;6136;47.032;15.398;2023-03-14T04:54:03;96113.72;;;6.35;100.00
12146;BME280;6136;47.032;15.398;2023-03-14T04:56:31;96133.59;;;6.39;100.00
12146;BME280;6136;47.032;15.398;2023-03-14T04:59:01;96144.75;;;6.42;100.00
12146;BME280;6136;47.032;15.398;2023-03-14T05:01:31;96138.31;;;6.46;100.00
12146;BME280;6136;47.032;15.398;2023-03-14T05:04:25;96128.53;;;6.48;100.00
12146;BME280;6136;47.032;15.398;2023-03-14T05:07:10;96115.28;;;6.50;100.00
12146;BME280;6136;47.032;15.398;2023-03-14T05:10:03;96110.88;;;6.50;100.00
12146;BME280;6136;47.032;15.398;2023-03-14T05:12:50;96113.28;;;6.53;100.00
12146;BME280;6136;47.032;15.398;2023-03-14T05:15:37;96130.97;;;6.51;100.00
12146;BME280;6136;47.032;15.398;2023-03-14T05:18:28;96118.41;;;6.68;100.00
12146;BME280;6136;47.032;15.398;2023-03-14T05:21:12;96117.16;;;6.73;100.00
12146;BME280;6136;47.032;15.398;2023-03-14T05:24:02;96111.56;;;6.78;100.00
12146;BME280;6136;47.032;15.398;2023-03-14T05:26:48;96121.91;;;6.81;100.00
12146;BME280;6136;47.032;15.398;2023-03-14T05:29:26;96119.03;;;6.84;100.00
12146;BME280;6136;47.032;15.398;2023-03-14T05:32:03;96109.97;;;6.88;100.00
12146;BME280;6136;47.032;15.398;2023-03-14T05:34:52;96098.59;;;6.87;100.00
12146;BME280;6136;47.032;15.398;2023-03-14T05:37:52;96097.66;;;6.88;100.00
12146;BME280;6136;47.032;15.398;2023-03-14T05:40:39;96084.91;;;6.95;100.00
12146;BME280;6136;47.032;15.398;2023-03-14T05:43:13;96089.91;;;6.98;100.00
12146;BME280;6136;47.032;15.398;2023-03-14T05:46:18;96087.69;;;7.05;100.00
12146;BME280;6136;47.032;15.398;2023-03-14T05:49:00;96090.75;;;7.11;100.00
12146;BME280;6136;47.032;15.398;2023-03-14T05:51:51;96092.09;;;7.17;100.00
12146;BME280;6136;47.032;15.398;2023-03-14T05:54:41;96100.38;;;7.23;100.00
12146;BME280;6136;47.032;15.398;2023-03-14T05:57:35;96081.00;;;7.24;100.00
12146;BME280;6136;47.032;15.398;2023-03-14T06:00:04;96076.63;;;7.36;100.00
12146;BME280;6136;47.032;15.398;2023-03-14T06:02:44;96081.72;;;7.50;100.00
12146;BME280;6136;47.032;15.398;2023-03-14T06:05:20;96089.50;;;7.52;100.00
12146;BME280;6136;47.032;15.398;2023-03-14T06:07:54;96086.16;;;7.50;100.00
12146;BME280;6136;47.032;15.398;2023-03-14T06:10:24;96063.66;;;7.57;100.00
12146;BME280;6136;47.032;15.398;2023-03-14T06:12:52;96053.28;;;7.66;100.00
12146;BME280;6136;47.032;15.398;2023-03-14T06:15:20;96055.22;;;7.75;100.00
12146;BME280;6136;47.032;15.398;2023-03-14T06:17:51;96077.06;;;7.77;100.00
12146;BME280;6136;47.032;15.398;2023-03-14T06:20:21;96094.69;;;7.88;100.00
12146;BME280;6136;47.032;15.398;2023-03-14T06:22:50;96089.22;;;8.02;100.00
12146;BME280;6136;47.032;15.398;2023-03-14T06:25:18;96078.94;;;8.10;100.00
12146;BME280;6136;47.032;15.398;2023-03-14T06:27:49;96083.16;;;8.24;100.00
12146;BME280;6136;47.032;15.398;2023-03-14T06:30:17;96074.19;;;8.38;100.00
12146;BME280;6136;47.032;15.398;2023-03-14T06:32:46;96069.66;;;8.51;100.00
12146;BME280;6136;47.032;15.398;2023-03-14T06:35:16;96068.31;;;8.68;100.00
12146;BME280;6136;47.032;15.398;2023-03-14T06:37:44;96070.72;;;8.93;100.00
12146;BME280;6136;47.032;15.398;2023-03-14T06:40:13;96086.66;;;9.25;100.00
12146;BME280;6136;47.032;15.398;2023-03-14T06:42:59;96075.72;;;9.61;99.53
12146;BME280;6136;47.032;15.398;2023-03-14T06:45:29;96075.16;;;9.79;100.00
12146;BME280;6136;47.032;15.398;2023-03-14T06:48:00;96086.47;;;10.01;99.40
12146;BME280;6136;47.032;15.398;2023-03-14T06:50:36;96084.78;;;10.32;96.28
12146;BME280;6136;47.032;15.398;2023-03-14T06:53:04;96072.88;;;10.47;95.29
12146;BME280;6136;47.032;15.398;2023-03-14T06:55:36;96082.25;;;10.82;92.07
12146;BME280;6136;47.032;15.398;2023-03-14T06:58:07;96053.66;;;11.25;87.83
12146;BME280;6136;47.032;15.398;2023-03-14T07:00:41;96046.34;;;11.77;89.67
12146;BME280;6136;47.032;15.398;2023-03-14T07:03:13;96039.03;;;13.91;78.48
12146;BME280;6136;47.032;15.398;2023-03-14T07:05:44;96045.00;;;15.14;71.63
12146;BME280;6136;47.032;15.398;2023-03-14T07:08:13;96047.94;;;16.52;65.06
12146;BME280;6136;47.032;15.398;2023-03-14T07:10:41;96041.91;;;16.66;61.72
12146;BME280;6136;47.032;15.398;2023-03-14T07:13:11;96043.50;;;16.92;61.97
12146;BME280;6136;47.032;15.398;2023-03-14T07:15:50;96028.84;;;17.58;60.26
12146;BME280;6136;47.032;15.398;2023-03-14T07:18:19;96044.88;;;18.80;55.41
12146;BME280;6136;47.032;15.398;2023-03-14T07:20:47;96043.69;;;19.12;53.88
12146;BME280;6136;47.032;15.398;2023-03-14T07:23:18;96053.31;;;18.91;54.84
12146;BME280;6136;47.032;15.398;2023-03-14T07:25:48;96056.53;;;18.49;56.55
12146;BME280;6136;47.032;15.398;2023-03-14T07:28:20;96058.53;;;18.10;58.26
12146;BME280;6136;47.032;15.398;2023-03-14T07:30:56;96062.25;;;16.92;62.29
12146;BME280;6136;47.032;15.398;2023-03-14T07:33:29;96058.47;;;16.13;66.62
12146;BME280;6136;47.032;15.398;2023-03-14T07:35:58;96052.56;;;15.69;68.98
12146;BME280;6136;47.032;15.398;2023-03-14T07:38:26;96047.13;;;15.45;71.37
12146;BME280;6136;47.032;15.398;2023-03-14T07:41:30;96050.25;;;15.32;72.13
12146;BME280;6136;47.032;15.398;2023-03-14T07:44:37;96036.56;;;16.02;70.81
12146;BME280;6136;47.032;15.398;2023-03-14T07:47:05;96022.66;;;16.55;66.28
12146;BME280;6136;47.032;15.398;2023-03-14T07:49:33;96000.88;;;16.90;65.79
12146;BME280;6136;47.032;15.398;2023-03-14T07:52:02;96011.31;;;18.23;60.97
12146;BME280;6136;47.032;15.398;2023-03-14T07:54:30;96007.00;;;20.76;54.23
12146;BME280;6136;47.032;15.398;2023-03-14T07:56:58;96012.66;;;23.09;47.07
12146;BME280;6136;47.032;15.398;2023-03-14T07:59:27;96013.91;;;22.41;45.63
12146;BME280;6136;47.032;15.398;2023-03-14T08:01:56;96003.63;;;21.29;48.42
12146;BME280;6136;47.032;15.398;2023-03-14T08:04:25;95985.47;;;22.32;47.09
12146;BME280;6136;47.032;15.398;2023-03-14T08:06:54;95988.13;;;23.75;43.99
12146;BME280;6136;47.032;15.398;2023-03-14T08:09:22;95979.84;;;24.08;42.16
12146;BME280;6136;47.032;15.398;2023-03-14T08:11:50;95974.50;;;24.26;42.08
12146;BME280;6136;47.032;15.398;2023-03-14T08:14:18;95970.75;;;25.75;39.71
12146;BME280;6136;47.032;15.398;2023-03-14T08:16:46;95966.16;;;25.75;38.63
12146;BME280;6136;47.032;15.398;2023-03-14T08:19:16;95956.75;;;26.73;37.03
12146;BME280;6136;47.032;15.398;2023-03-14T08:21:44;95962.72;;;25.98;38.15
12146;BME280;6136;47.032;15.398;2023-03-14T08:24:12;95944.78;;;25.12;39.21
12146;BME280;6136;47.032;15.398;2023-03-14T08:26:40;95944.94;;;25.18;39.62
12146;BME280;6136;47.032;15.398;2023-03-14T08:29:09;95949.06;;;24.77;38.42
12146;BME280;6136;47.032;15.398;2023-03-14T08:31:39;95965.19;;;24.22;39.22
12146;BME280;6136;47.032;15.398;2023-03-14T08:34:07;95962.34;;;23.15;40.53
12146;BME280;6136;47.032;15.398;2023-03-14T08:36:37;95960.16;;;22.06;43.34
12146;BME280;6136;47.032;15.398;2023-03-14T08:39:05;95959.94;;;22.28;43.18
12146;BME280;6136;47.032;15.398;2023-03-14T08:41:35;95947.88;;;22.63;42.94
12146;BME280;6136;47.032;15.398;2023-03-14T08:44:07;95944.69;;;23.19;43.78
12146;BME280;6136;47.032;15.398;2023-03-14T08:46:35;95938.47;;;23.56;41.19
12146;BME280;6136;47.032;15.398;2023-03-14T08:49:04;95934.53;;;24.28;40.17
12146;BME280;6136;47.032;15.398;2023-03-14T08:51:32;95923.47;;;24.98;38.66
12146;BME280;6136;47.032;15.398;2023-03-14T08:54:02;95934.03;;;24.81;39.02
12146;BME280;6136;47.032;15.398;2023-03-14T08:56:30;95960.06;;;23.70;40.15
12146;BME280;6136;47.032;15.398;2023-03-14T08:58:58;95958.69;;;22.90;41.85
12146;BME280;6136;47.032;15.398;2023-03-14T09:01:26;95952.91;;;21.05;45.54
12146;BME280;6136;47.032;15.398;2023-03-14T09:03:55;95960.06;;;19.87;48.62
12146;BME280;6136;47.032;15.398;2023-03-14T09:06:23;95956.41;;;19.01;51.40
12146;BME280;6136;47.032;15.398;2023-03-14T09:08:51;95954.00;;;18.62;52.26
12146;BME280;6136;47.032;15.398;2023-03-14T09:11:21;95953.94;;;18.33;54.21
12146;BME280;6136;47.032;15.398;2023-03-14T09:13:49;95940.47;;;18.03;54.08
12146;BME280;6136;47.032;15.398;2023-03-14T09:16:17;95947.34;;;17.83;54.37
12146;BME280;6136;47.032;15.398;2023-03-14T09:18:45;95939.75;;;17.64;55.12
12146;BME280;6136;47.032;15.398;2023-03-14T09:21:13;95931.06;;;17.39;56.39
12146;BME280;6136;47.032;15.398;2023-03-14T09:23:42;95943.59;;;17.38;55.68
12146;BME280;6136;47.032;15.398;2023-03-14T09:26:12;95931.03;;;17.16;56.70
12146;BME280;6136;47.032;15.398;2023-03-14T09:28:42;95946.94;;;17.40;55.87
12146;BME280;6136;47.032;15.398;2023-03-14T09:31:11;95937.88;;;17.19;56.27
12146;BME280;6136;47.032;15.398;2023-03-14T09:33:40;95952.84;;;16.97;56.53
12146;BME280;6136;47.032;15.398;2023-03-14T09:36:09;95949.41;;;16.88;56.72
12146;BME280;6136;47.032;15.398;2023-03-14T09:38:37;95950.97;;;16.66;57.40
12146;BME280;6136;47.032;15.398;2023-03-14T09:41:13;95944.44;;;16.53;58.47
12146;BME280;6136;47.032;15.398;2023-03-14T09:43:45;95936.31;;;16.38;58.35
12146;BME280;6136;47.032;15.398;2023-03-14T09:46:14;95948.38;;;16.18;59.33
12146;BME280;6136;47.032;15.398;2023-03-14T09:48:43;95951.06;;;16.18;59.30
12146;BME280;6136;47.032;15.398;2023-03-14T09:51:14;95942.56;;;16.06;60.08
12146;BME280;6136;47.032;15.398;2023-03-14T09:53:45;95933.03;;;16.04;60.23
12146;BME280;6136;47.032;15.398;2023-03-14T09:56:17;95945.41;;;16.05;59.84
12146;BME280;6136;47.032;15.398;2023-03-14T09:58:51;95935.88;;;16.02;59.87
12146;BME280;6136;47.032;15.398;2023-03-14T10:01:25;95936.72;;;16.03;60.93
12146;BME280;6136;47.032;15.398;2023-03-14T10:03:56;95941.06;;;15.96;61.38
12146;BME280;6136;47.032;15.398;2023-03-14T10:06:27;95951.75;;;15.96;62.86
12146;BME280;6136;47.032;15.398;2023-03-14T10:08:56;95955.09;;;15.89;62.11
12146;BME280;6136;47.032;15.398;2023-03-14T10:11:25;95943.88;;;15.94;61.94
12146;BME280;6136;47.032;15.398;2023-03-14T10:14:06;95928.50;;;16.20;60.57
12146;BME280;6136;47.032;15.398;2023-03-14T10:16:36;95932.31;;;16.42;60.00
12146;BME280;6136;47.032;15.398;2023-03-14T10:19:07;95934.44;;;16.63;61.56
12146;BME280;6136;47.032;15.398;2023-03-14T10:21:37;95919.59;;;18.13;56.68
12146;BME280;6136;47.032;15.398;2023-03-14T10:24:19;95915.78;;;18.89;53.65
12146;BME280;6136;47.032;15.398;2023-03-14T10:26:53;95906.00;;;19.18;51.76
12146;BME280;6136;47.032;15.398;2023-03-14T10:29:22;95900.25;;;19.21;53.27
12146;BME280;6136;47.032;15.398;2023-03-14T10:31:53;95928.09;;;19.70;52.30
12146;BME280;6136;47.032;15.398;2023-03-14T10:34:24;95934.88;;;19.16;52.33
12146;BME280;6136;47.032;15.398;2023-03-14T10:36:54;95929.50;;;19.30;49.83
12146;BME280;6136;47.032;15.398;2023-03-14T10:39:29;95912.06;;;18.61;52.51
12146;BME280;6136;47.032;15.398;2023-03-14T10:42:04;95915.03;;;18.95;50.27
12146;BME280;6136;47.032;15.398;2023-03-14T10:44:35;95905.06;;;18.89;49.43
12146;BME280;6136;47.032;15.398;2023-03-14T10:47:04;95889.88;;;19.75;47.67
12146;BME280;6136;47.032;15.398;2023-03-14T10:49:35;95891.84;;;19.88;45.86
12146;BME280;6136;47.032;15.398;2023-03-14T10:52:18;95910.72;;;19.94;43.53
12146;BME280;6136;47.032;15.398;2023-03-14T10:55:02;95939.34;;;19.59;43.33
12146;BME280;6136;47.032;15.398;2023-03-14T10:57:31;95929.34;;;19.53;41.36
12146;BME280;6136;47.032;15.398;2023-03-14T11:00:00;95927.19;;;19.63;41.07
12146;BME280;6136;47.032;15.398;2023-03-14T11:02:46;95937.94;;;19.85;39.95
12146;BME280;6136;47.032;15.398;2023-03-14T11:05:27;95921.75;;;18.47;41.76
12146;BME280;6136;47.032;15.398;2023-03-14T11:08:02;95916.47;;;18.24;41.94
12146;BME280;6136;47.032;15.398;2023-03-14T11:10:34;95928.06;;;18.98;41.75
12146;BME280;6136;47.032;15.398;2023-03-14T11:13:14;95936.97;;;19.35;42.18
12146;BME280;6136;47.032;15.398;2023-03-14T11:15:51;95937.63;;;21.73;37.58
12146;BME280;6136;47.032;15.398;2023-03-14T11:21:32;95948.72;;;22.31;34.69
12146;BME280;6136;47.032;15.398;2023-03-14T11:24:20;95951.47;;;21.50;35.53
12146;BME280;6136;47.032;15.398;2023-03-14T11:26:56;95956.66;;;21.04;37.23
12146;BME280;6136;47.032;15.398;2023-03-14T11:29:32;95958.38;;;20.84;36.92
12146;BME280;6136;47.032;15.398;2023-03-14T11:32:13;95936.94;;;20.35;37.27
12146;BME280;6136;47.032;15.398;2023-03-14T11:34:47;95934.75;;;20.45;38.83
12146;BME280;6136;47.032;15.398;2023-03-14T11:37:23;95927.72;;;20.44;39.12
12146;BME280;6136;47.032;15.398;2023-03-14T11:39:59;95918.28;;;21.50;35.72
12146;BME280;6136;47.032;15.398;2023-03-14T11:42:32;95902.59;;;21.73;36.42
12146;BME280;6136;47.032;15.398;2023-03-14T11:45:01;95904.94;;;20.74;38.01
12146;BME280;6136;47.032;15.398;2023-03-14T11:47:34;95908.63;;;20.17;38.62
12146;BME280;6136;47.032;15.398;2023-03-14T11:50:12;95915.75;;;19.76;39.56
12146;BME280;6136;47.032;15.398;2023-03-14T11:52:47;95920.66;;;19.72;39.63
12146;BME280;6136;47.032;15.398;2023-03-14T11:55:20;95923.28;;;19.30;41.34
12146;BME280;6136;47.032;15.398;2023-03-14T11:57:56;95930.63;;;19.21;40.75
12146;BME280;6136;47.032;15.398;2023-03-14T12:00:26;95913.59;;;20.14;38.26
12146;BME280;6136;47.032;15.398;2023-03-14T12:03:01;95909.59;;;21.41;38.35
12146;BME280;6136;47.032;15.398;2023-03-14T12:05:39;95914.75;;;21.49;38.94
12146;BME280;6136;47.032;15.398;2023-03-14T12:08:39;95909.47;;;21.89;37.72
12146;BME280;6136;47.032;15.398;2023-03-14T12:11:13;95906.69;;;20.61;38.94
12146;BME280;6136;47.032;15.398;2023-03-14T12:13:47;95907.16;;;22.84;36.11
12146;BME280;6136;47.032;15.398;2023-03-14T12:16:27;95912.53;;;24.43;33.36
12146;BME280;6136;47.032;15.398;2023-03-14T12:19:14;95911.25;;;26.45;30.96
12146;BME280;6136;47.032;15.398;2023-03-14T12:21:47;95898.72;;;28.10;27.98
12146;BME280;6136;47.032;15.398;2023-03-14T12:24:18;95892.38;;;26.50;29.19
12146;BME280;6136;47.032;15.398;2023-03-14T12:26:53;95891.28;;;24.83;29.98
12146;BME280;6136;47.032;15.398;2023-03-14T12:29:22;95907.75;;;23.51;32.01
12146;BME280;6136;47.032;15.398;2023-03-14T12:32:07;95897.84;;;22.54;33.25
12146;BME280;6136;47.032;15.398;2023-03-14T12:34:41;95898.47;;;21.77;35.09
12146;BME280;6136;47.032;15.398;2023-03-14T12:37:19;95909.22;;;20.34;36.07
12146;BME280;6136;47.032;15.398;2023-03-14T12:40:02;95920.41;;;19.67;37.46
12146;BME280;6136;47.032;15.398;2023-03-14T12:42:40;95917.00;;;19.23;38.46
12146;BME280;6136;47.032;15.398;2023-03-14T12:45:22;95900.78;;;18.80;39.70
12146;BME280;6136;47.032;15.398;2023-03-14T12:47:54;95913.16;;;18.22;39.63
12146;BME280;6136;47.032;15.398;2023-03-14T12:50:31;95914.16;;;18.07;40.57
12146;BME280;6136;47.032;15.398;2023-03-14T12:56:11;95921.88;;;17.56;42.21
12146;BME280;6136;47.032;15.398;2023-03-14T12:58:53;95926.78;;;17.53;42.44
12146;BME280;6136;47.032;15.398;2023-03-14T13:01:26;95926.28;;;17.26;42.48
12146;BME280;6136;47.032;15.398;2023-03-14T13:03:57;95934.41;;;17.10;43.67
12146;BME280;6136;47.032;15.398;2023-03-14T13:06:46;95931.13;;;16.92;44.36
12146;BME280;6136;47.032;15.398;2023-03-14T13:09:36;95923.88;;;16.69;45.38
12146;BME280;6136;47.032;15.398;2023-03-14T13:12:18;95924.94;;;16.52;46.07
12146;BME280;6136;47.032;15.398;2023-03-14T13:14:48;95932.28;;;16.50;46.44
12146;BME280;6136;47.032;15.398;2023-03-14T13:17:23;95932.00;;;16.29;46.55
12146;BME280;6136;47.032;15.398;2023-03-14T13:20:05;95940.50;;;16.24;46.52
12146;BME280;6136;47.032;15.398;2023-03-14T13:22:46;95934.38;;;16.08;47.45
12146;BME280;6136;47.032;15.398;2023-03-14T13:25:14;95935.03;;;15.93;48.05
12146;BME280;6136;47.032;15.398;2023-03-14T13:27:43;95927.38;;;15.66;48.44
12146;BME280;6136;47.032;15.398;2023-03-14T13:30:15;95923.34;;;15.46;48.98
12146;BME280;6136;47.032;15.398;2023-03-14T13:32:46;95923.38;;;15.54;49.40
12146;BME280;6136;47.032;15.398;2023-03-14T13:35:20;95921.16;;;15.49;50.08
12146;BME280;6136;47.032;15.398;2023-03-14T13:37:58;95926.66;;;15.32;49.74